Time;durP1;ratioP1;P1;durP2;ratioP2;P2;SDS_P1;SDS_P2;PMS_P1;PMS_P2;Temp;Humidity;BMP_temperature;BMP_pressure;BME280_temperature;BME280_humidity;BME280_pressure;Samples;Min_cycle;Max_cycle;Signal;HPM_P1;HPM_P2
2022/04/11 00:01:58;;;;;;;4.05;3.75;;;;;;;5.35;66.69;94447.88;5076989;28;20272;-70
2022/04/11 00:04:25;;;;;;;3.95;3.65;;;;;;;5.35;66.91;94454.13;5096063;28;20527;-70
2022/04/11 00:06:52;;;;;;;3.90;3.60;;;;;;;5.35;66.11;94445.13;5078270;28;20192;-70
2022/04/11 00:09:19;;;;;;;3.95;3.65;;;;;;;5.37;66.27;94454.59;5096751;28;20199;-70
2022/04/11 00:11:46;;;;;;;4.43;4.03;;;;;;;5.41;66.60;94463.75;5078299;28;20244;-69
2022/04/11 00:14:13;;;;;;;4.68;4.28;;;;;;;5.43;65.39;94458.72;5096288;28;20181;-70
2022/04/11 00:16:40;;;;;;;4.10;3.80;;;;;;;5.47;65.92;94461.59;5078477;28;20224;-69
2022/04/11 00:19:10;;;;;;;4.43;4.03;;;;;;;5.48;65.41;94464.00;5078435;28;20210;-69
2022/04/11 00:21:37;;;;;;;4.20;3.90;;;;;;;5.49;65.25;94470.28;5078862;28;20192;-69
2022/04/11 00:24:04;;;;;;;3.92;3.65;;;;;;;5.43;64.66;94472.41;5078304;28;20224;-69
2022/04/11 00:26:31;;;;;;;3.92;3.53;;;;;;;5.46;64.29;94469.00;5077858;28;20196;-69
2022/04/11 00:28:58;;;;;;;3.88;3.33;;;;;;;5.47;63.77;94469.78;5078224;28;20192;-69
2022/04/11 00:31:25;;;;;;;4.20;3.80;;;;;;;5.51;64.84;94478.94;5095959;28;20212;-69
2022/04/11 00:33:52;;;;;;;3.53;3.30;;;;;;;5.50;63.76;94480.06;5078055;28;20200;-69
2022/04/11 00:36:21;;;;;;;3.88;3.50;;;;;;;5.51;63.50;94490.66;5077789;28;20250;-69
2022/04/11 00:38:47;;;;;;;3.53;3.33;;;;;;;5.50;64.06;94497.28;5095649;28;20196;-69
2022/04/11 00:41:14;;;;;;;3.70;3.40;;;;;;;5.49;63.66;94503.91;5078335;28;20283;-69
2022/04/11 00:43:42;;;;;;;3.85;3.55;;;;;;;5.50;64.55;94499.22;5077559;28;20228;-69
2022/04/11 00:46:10;;;;;;;3.70;3.40;;;;;;;5.55;64.55;94509.94;5095700;28;20253;-69
2022/04/11 00:48:38;;;;;;;3.78;3.47;;;;;;;5.55;63.68;94501.75;5095550;28;20249;-69
2022/04/11 00:51:07;;;;;;;3.40;3.10;;;;;;;5.56;63.52;94508.84;5095275;28;20223;-69
2022/04/11 00:53:38;;;;;;;3.50;3.20;;;;;;;5.57;63.22;94515.09;5077391;28;20200;-69
2022/04/11 00:56:05;;;;;;;3.80;3.28;;;;;;;5.57;62.84;94520.56;5095544;28;20220;-69
2022/04/11 00:58:32;;;;;;;3.55;3.25;;;;;;;5.59;62.56;94523.75;5077652;28;20211;-69
2022/04/11 01:00:59;;;;;;;3.70;3.40;;;;;;;5.59;62.38;94531.97;5095556;28;20416;-69
2022/04/11 01:03:26;;;;;;;3.35;3.10;;;;;;;5.57;62.13;94521.38;5078051;28;20207;-69
2022/04/11 01:05:53;;;;;;;3.50;3.30;;;;;;;5.57;62.48;94526.03;5095477;28;20222;-69
2022/04/11 01:08:21;;;;;;;3.80;3.20;;;;;;;5.57;62.28;94540.53;5095353;28;20191;-69
2022/04/11 01:10:49;;;;;;;3.65;3.35;;;;;;;5.56;62.36;94544.41;5095246;28;20255;-69
2022/04/11 01:13:17;;;;;;;3.33;3.05;;;;;;;5.55;62.63;94545.50;5094721;28;20729;-69
2022/04/11 01:15:54;;;;;;;3.65;3.00;;;;;;;5.57;62.38;94554.19;5095487;28;20181;-69
2022/04/11 01:18:21;;;;;;;3.35;3.10;;;;;;;5.59;62.56;94560.13;5095403;28;20257;-69
2022/04/11 01:20:48;;;;;;;4.00;3.25;;;;;;;5.60;62.04;94563.69;5077596;28;20202;-69
2022/04/11 01:23:17;;;;;;;3.30;3.00;;;;;;;5.63;63.09;94555.59;5077732;28;20238;-69
2022/04/11 01:25:50;;;;;;;3.10;2.90;;;;;;;5.63;62.82;94563.00;5077591;28;20564;-69
2022/04/11 01:28:17;;;;;;;3.40;3.10;;;;;;;5.63;62.98;94566.56;5095245;28;20250;-69
2022/04/11 01:30:44;;;;;;;3.42;3.22;;;;;;;5.62;62.39;94577.81;5077465;28;20258;-69
2022/04/11 01:33:15;;;;;;;3.28;2.97;;;;;;;5.60;62.75;94583.63;5095153;28;20198;-69
2022/04/11 01:35:43;;;;;;;3.63;3.33;;;;;;;5.60;62.84;94575.41;5094991;28;20193;-69
2022/04/11 01:38:10;;;;;;;3.75;3.45;;;;;;;5.62;61.87;94575.88;5077531;28;20614;-69
2022/04/11 01:40:38;;;;;;;3.67;3.35;;;;;;;5.61;62.41;94574.28;5077320;28;20235;-69
2022/04/11 01:43:06;;;;;;;3.00;2.80;;;;;;;5.65;62.34;94579.88;5095048;28;20193;-69
2022/04/11 01:45:33;;;;;;;3.78;3.47;;;;;;;5.65;61.99;94588.09;5095053;28;20191;-69
2022/04/11 01:48:00;;;;;;;3.13;2.83;;;;;;;5.67;61.75;94591.31;5095015;28;20254;-69
2022/04/11 01:50:27;;;;;;;2.92;2.72;;;;;;;5.65;60.82;94596.31;5094612;28;20255;-69
2022/04/11 01:52:54;;;;;;;3.38;3.08;;;;;;;5.65;62.20;94591.63;5077052;28;20203;-69
2022/04/11 01:55:21;;;;;;;3.30;3.05;;;;;;;5.66;61.90;94600.63;5077337;28;20235;-69
2022/04/11 01:57:49;;;;;;;3.58;3.10;;;;;;;5.66;62.06;94606.91;5094934;28;20220;-69
2022/04/11 02:00:17;;;;;;;3.17;2.92;;;;;;;5.66;62.10;94604.16;5094992;28;20223;-69
2022/04/11 02:02:44;;;;;;;3.28;2.90;;;;;;;5.65;62.59;94613.50;5073274;28;20233;-69
2022/04/11 02:05:10;;;;;;;3.20;2.90;;;;;;;5.64;62.88;94619.31;5073804;28;20232;-70
2022/04/11 02:07:37;;;;;;;3.60;3.30;;;;;;;5.65;62.27;94629.13;5074528;28;20201;-70
2022/04/11 02:10:05;;;;;;;3.13;2.90;;;;;;;5.66;62.34;94633.47;5074279;28;20221;-71
2022/04/11 02:12:32;;;;;;;3.13;2.83;;;;;;;5.67;62.79;94635.88;5073400;28;20223;-69
2022/04/11 02:15:00;;;;;;;3.40;3.10;;;;;;;5.64;61.93;94630.28;5074496;28;20201;-69
2022/04/11 02:17:27;;;;;;;3.10;2.90;;;;;;;5.62;62.69;94644.28;5074284;28;20295;-69
2022/04/11 02:19:54;;;;;;;3.17;2.90;;;;;;;5.65;62.17;94645.53;5074152;28;20598;-69
2022/04/11 02:22:21;;;;;;;2.85;2.63;;;;;;;5.67;63.18;94640.56;5073953;28;20275;-69
2022/04/11 02:24:48;;;;;;;3.47;3.17;;;;;;;5.66;61.60;94649.88;5074468;28;20199;-69
2022/04/11 02:27:15;;;;;;;3.30;3.00;;;;;;;5.66;62.44;94658.09;5077941;28;20181;-69
2022/04/11 02:29:42;;;;;;;3.33;3.03;;;;;;;5.60;61.30;94660.22;5077984;28;20190;-69
2022/04/11 02:32:10;;;;;;;3.08;2.88;;;;;;;5.59;62.42;94664.06;5077849;28;20262;-69
2022/04/11 02:34:37;;;;;;;3.30;2.97;;;;;;;5.58;62.63;94672.63;5076962;28;20193;-69
2022/04/11 02:37:05;;;;;;;3.45;3.15;;;;;;;5.56;63.47;94670.25;5076685;28;20223;-70
2022/04/11 02:39:32;;;;;;;3.40;3.10;;;;;;;5.59;62.64;94675.03;5077041;28;20592;-69
2022/04/11 02:42:00;;;;;;;3.33;3.03;;;;;;;5.64;62.85;94676.78;5077468;28;20585;-68
2022/04/11 02:44:27;;;;;;;3.33;2.90;;;;;;;5.63;62.49;94677.91;5076572;28;20232;-69
2022/04/11 02:46:53;;;;;;;4.10;3.70;;;;;;;5.65;63.33;94687.38;5076632;28;20205;-69
2022/04/11 02:49:23;;;;;;;3.90;3.50;;;;;;;5.65;63.20;94681.13;5077780;28;20258;-70
2022/04/11 02:51:50;;;;;;;4.18;3.10;;;;;;;5.60;63.26;94689.53;5077565;28;20284;-70
2022/04/11 02:54:17;;;;;;;3.83;3.42;;;;;;;5.57;62.41;94698.38;5077510;28;20185;-70
2022/04/11 02:56:44;;;;;;;3.30;3.00;;;;;;;5.57;63.44;94696.44;5077422;28;20243;-69
2022/04/11 02:59:10;;;;;;;3.47;3.17;;;;;;;5.55;63.36;94702.25;5077036;28;20193;-69
2022/04/11 03:01:38;;;;;;;3.63;3.33;;;;;;;5.54;62.78;94706.13;5084525;28;20240;-69
2022/04/11 03:04:05;;;;;;;3.22;3.03;;;;;;;5.52;64.08;94705.66;5096953;28;20199;-69
2022/04/11 03:06:33;;;;;;;3.30;3.00;;;;;;;5.51;63.14;94712.25;5096770;28;20553;-69
2022/04/11 03:09:00;;;;;;;3.40;3.10;;;;;;;5.51;64.59;94704.03;5079345;28;20208;-69
2022/04/11 03:11:27;;;;;;;2.92;2.72;;;;;;;5.50;63.36;94715.31;5079568;28;20220;-70
2022/04/11 03:13:54;;;;;;;3.35;3.05;;;;;;;5.51;64.91;94709.50;5097089;28;20263;-70
2022/04/11 03:16:21;;;;;;;3.97;3.25;;;;;;;5.53;63.92;94711.94;5079065;28;20228;-70
2022/04/11 03:18:48;;;;;;;4.05;3.28;;;;;;;5.53;64.65;94714.66;5079164;28;20200;-70
2022/04/11 03:21:15;;;;;;;4.15;3.78;;;;;;;5.52;63.95;94713.88;5097132;28;20204;-70
2022/04/11 03:23:43;;;;;;;3.50;3.20;;;;;;;5.50;63.42;94721.59;5097026;28;20227;-69
2022/04/11 03:26:10;;;;;;;3.58;3.30;;;;;;;5.51;63.99;94728.66;5079559;28;20211;-70
2022/04/11 03:28:37;;;;;;;4.13;3.67;;;;;;;5.51;63.84;94725.91;5096643;28;20274;-69
2022/04/11 03:31:04;;;;;;;3.72;3.40;;;;;;;5.55;63.92;94732.34;5079172;28;20197;-69
2022/04/11 03:33:49;;;;;;;3.53;3.20;;;;;;;5.54;64.32;94741.69;5078949;28;20194;-69
2022/04/11 03:36:16;;;;;;;4.00;3.60;;;;;;;5.52;63.17;94748.63;5096826;28;20202;-70
2022/04/11 03:38:45;;;;;;;3.55;3.25;;;;;;;5.51;62.47;94750.53;5079127;28;20581;-70
2022/04/11 03:41:12;;;;;;;3.40;3.10;;;;;;;5.51;62.41;94756.00;5097052;28;20184;-69
2022/04/11 03:43:39;;;;;;;4.68;3.33;;;;;;;5.51;62.92;94756.00;5079743;28;20184;-71
2022/04/11 03:46:06;;;;;;;3.60;3.28;;;;;;;5.51;62.94;94768.88;5079488;28;20269;-70
2022/04/11 03:48:33;;;;;;;3.90;3.60;;;;;;;5.55;62.65;94761.63;5079312;28;20206;-70
2022/04/11 03:51:00;;;;;;;4.10;3.70;;;;;;;5.60;62.15;94774.34;5097158;28;20275;-68
2022/04/11 03:53:27;;;;;;;3.42;3.13;;;;;;;5.62;61.87;94769.31;5097401;28;20230;-71
2022/04/11 03:55:55;;;;;;;3.80;3.50;;;;;;;5.58;61.33;94763.72;5079563;28;20218;-70
2022/04/11 03:58:22;;;;;;;3.58;3.28;;;;;;;5.57;61.15;94773.06;5096446;28;20191;-69
2022/04/11 04:00:49;;;;;;;4.00;3.60;;;;;;;5.57;61.26;94770.31;5078930;28;20196;-70
2022/04/11 04:03:17;;;;;;;3.73;3.40;;;;;;;5.54;60.92;94774.50;5078484;28;20426;-71
2022/04/11 04:05:46;;;;;;;4.55;4.20;;;;;;;5.52;60.96;94778.72;5096083;28;20475;-67
2022/04/11 04:08:13;;;;;;;7.13;4.90;;;;;;;5.54;60.74;94781.91;5096619;28;20185;-69
2022/04/11 04:10:41;;;;;;;4.60;4.20;;;;;;;5.52;60.11;94785.00;5096289;28;20189;-68
2022/04/11 04:13:09;;;;;;;3.95;3.65;;;;;;;5.53;60.61;94789.31;5096376;28;20200;-68
2022/04/11 04:15:37;;;;;;;3.83;3.42;;;;;;;5.52;60.53;94797.88;5078789;28;20201;-71
2022/04/11 04:18:05;;;;;;;3.58;3.38;;;;;;;5.53;60.38;94800.25;5096421;28;20206;-69
2022/04/11 04:20:32;;;;;;;3.50;3.20;;;;;;;5.52;60.74;94798.66;5078352;28;20235;-69
2022/04/11 04:22:59;;;;;;;4.40;3.50;;;;;;;5.53;59.79;94804.94;5078021;28;20227;-70
2022/04/11 04:25:26;;;;;;;4.00;3.50;;;;;;;5.55;60.18;94808.13;5095743;28;20650;-70
2022/04/11 04:27:53;;;;;;;4.15;3.80;;;;;;;5.55;60.60;94819.06;5095971;28;20188;-70
2022/04/11 04:30:21;;;;;;;4.13;3.72;;;;;;;5.57;60.82;94811.34;5095673;28;20534;-70
2022/04/11 04:32:48;;;;;;;4.13;3.72;;;;;;;5.59;60.76;94820.03;5095553;28;20208;-70
2022/04/11 04:35:16;;;;;;;3.90;3.60;;;;;;;5.59;60.22;94824.69;5095671;28;20513;-69
2022/04/11 04:37:43;;;;;;;3.97;3.67;;;;;;;5.61;60.74;94827.91;5077915;28;20192;-70
2022/04/11 04:40:11;;;;;;;4.30;3.88;;;;;;;5.54;59.54;94831.94;5096049;28;20212;-70
2022/04/11 04:42:38;;;;;;;4.28;3.88;;;;;;;5.54;60.03;94831.16;5095676;28;20206;-70
2022/04/11 04:45:06;;;;;;;4.28;3.97;;;;;;;5.58;59.79;94840.31;5095466;28;20172;-70
2022/04/11 04:47:34;;;;;;;4.38;3.97;;;;;;;5.57;59.94;94843.38;5095613;28;20191;-70
2022/04/11 04:50:01;;;;;;;4.55;4.13;;;;;;;5.60;59.69;94848.22;5095343;28;20196;-70
2022/04/11 04:52:28;;;;;;;4.03;3.58;;;;;;;5.60;59.12;94851.75;5077366;28;20244;-70
2022/04/11 04:54:55;;;;;;;4.63;3.83;;;;;;;5.63;59.16;94853.00;5095790;28;20249;-70
2022/04/11 04:57:22;;;;;;;4.97;4.57;;;;;;;5.62;58.80;94862.34;5096041;28;20195;-70
2022/04/11 04:59:49;;;;;;;4.35;3.95;;;;;;;5.57;58.96;94859.81;5078044;28;20203;-70
2022/04/11 05:02:16;;;;;;;4.25;3.92;;;;;;;5.57;59.23;94866.06;5074358;28;20239;-70
2022/04/11 05:04:44;;;;;;;5.57;3.72;;;;;;;5.58;58.96;94861.41;5074702;28;20604;-70
2022/04/11 05:07:13;;;;;;;4.20;3.90;;;;;;;5.58;58.64;94867.66;5075327;28;20195;-70
2022/04/11 05:09:40;;;;;;;4.18;3.88;;;;;;;5.59;59.34;94877.47;5074663;28;20304;-70
2022/04/11 05:12:08;;;;;;;4.63;4.18;;;;;;;5.58;59.02;94881.34;5075175;28;20304;-70
2022/04/11 05:14:35;;;;;;;4.38;3.97;;;;;;;5.56;58.92;94880.88;5075100;28;20238;-70
2022/04/11 05:17:02;;;;;;;4.15;3.78;;;;;;;5.61;58.82;94882.63;5074110;28;20193;-70
2022/04/11 05:19:29;;;;;;;4.05;3.70;;;;;;;5.62;58.75;94895.97;5074223;28;20247;-70
2022/04/11 05:21:58;;;;;;;4.30;3.70;;;;;;;5.62;58.68;94882.31;5074861;28;20208;-70
2022/04/11 05:24:25;;;;;;;4.43;4.03;;;;;;;5.62;58.43;94887.78;5074244;28;20529;-70
2022/04/11 05:26:52;;;;;;;4.72;4.32;;;;;;;5.64;58.46;94882.00;5074081;28;20201;-70
2022/04/11 05:29:19;;;;;;;4.30;4.00;;;;;;;5.63;58.59;94894.88;5074304;28;20224;-70
2022/04/11 05:31:46;;;;;;;5.03;4.53;;;;;;;5.65;57.85;94889.06;5073697;28;20203;-70
2022/04/11 05:34:13;;;;;;;4.38;3.97;;;;;;;5.66;58.17;94893.41;5074967;28;20242;-70
2022/04/11 05:36:40;;;;;;;5.50;3.83;;;;;;;5.70;58.14;94897.91;5074688;28;20181;-70
2022/04/11 05:39:09;;;;;;;4.72;3.85;;;;;;;5.72;58.14;94895.66;5074121;28;20225;-70
2022/04/11 05:41:36;;;;;;;4.28;3.88;;;;;;;5.82;57.77;94893.69;5074500;28;20233;-70
2022/04/11 05:44:04;;;;;;;4.63;4.22;;;;;;;5.82;57.27;94888.22;5074930;28;20241;-69
2022/04/11 05:46:30;;;;;;;4.82;4.10;;;;;;;5.83;58.28;94896.09;5073980;28;20224;-69
2022/04/11 05:48:57;;;;;;;4.80;4.40;;;;;;;5.88;57.87;94903.31;5074486;28;20195;-70
2022/04/11 05:51:25;;;;;;;4.70;4.35;;;;;;;5.88;57.86;94901.41;5075100;28;20185;-70
2022/04/11 05:53:52;;;;;;;4.80;4.40;;;;;;;5.90;56.78;94907.34;5073770;28;20221;-70
2022/04/11 05:56:20;;;;;;;4.60;4.20;;;;;;;5.87;57.33;94905.25;5074369;28;20512;-70
2022/04/11 05:58:47;;;;;;;5.63;5.07;;;;;;;5.87;56.96;94910.72;5074363;28;20181;-70
2022/04/11 06:01:14;;;;;;;5.93;5.43;;;;;;;5.87;57.51;94918.94;5080798;28;20237;-70
2022/04/11 06:03:42;;;;;;;4.75;4.40;;;;;;;5.92;57.25;94920.69;5098466;28;20604;-70
2022/04/11 06:06:09;;;;;;;5.72;5.20;;;;;;;5.94;56.69;94926.69;5080914;28;20204;-70
2022/04/11 06:08:36;;;;;;;5.22;4.82;;;;;;;5.90;57.32;94928.44;5098648;28;20181;-70
2022/04/11 06:11:03;;;;;;;5.50;5.00;;;;;;;5.90;56.61;94937.47;5098630;28;20227;-71
2022/04/11 06:13:31;;;;;;;5.47;4.97;;;;;;;5.87;57.22;94937.31;5081001;28;20212;-71
2022/04/11 06:16:01;;;;;;;5.35;4.90;;;;;;;5.89;57.02;94935.84;5098949;28;20242;-71
2022/04/11 06:18:28;;;;;;;5.30;4.78;;;;;;;5.90;56.73;94931.97;5098575;28;20232;-71
2022/04/11 06:20:55;;;;;;;6.15;4.82;;;;;;;5.89;56.41;94932.31;5080595;28;20196;-71
2022/04/11 06:23:22;;;;;;;5.38;4.95;;;;;;;5.86;56.93;94933.78;5098725;28;20185;-71
2022/04/11 06:25:49;;;;;;;5.50;5.00;;;;;;;5.89;56.82;94932.31;5080913;28;20196;-71
2022/04/11 06:28:16;;;;;;;5.40;4.90;;;;;;;5.91;57.02;94944.53;5098085;28;20180;-70
2022/04/11 06:30:44;;;;;;;4.97;4.57;;;;;;;5.97;56.65;94945.19;5080093;28;20638;-71
2022/04/11 06:33:11;;;;;;;4.35;4.05;;;;;;;5.96;56.33;94941.66;5098202;28;20226;-70
2022/04/11 06:35:39;;;;;;;5.85;4.82;;;;;;;5.98;56.32;94946.81;5098343;28;20184;-70
2022/04/11 06:38:06;;;;;;;4.78;4.32;;;;;;;6.03;56.75;94947.44;5098167;28;20260;-70
2022/04/11 06:40:33;;;;;;;4.88;4.47;;;;;;;6.07;55.37;94941.31;5097697;28;20184;-70
2022/04/11 06:43:04;;;;;;;4.82;4.43;;;;;;;6.00;55.65;94945.34;5080312;28;20207;-70
2022/04/11 06:45:33;;;;;;;4.85;4.32;;;;;;;6.01;55.22;94944.22;5080299;28;20613;-70
2022/04/11 06:48:02;;;;;;;5.18;4.68;;;;;;;6.01;55.51;94940.69;5097630;28;20193;-70
2022/04/11 06:50:29;;;;;;;4.65;4.25;;;;;;;6.08;55.52;94940.19;5097656;28;20181;-70
2022/04/11 06:52:57;;;;;;;5.20;4.70;;;;;;;6.12;55.53;94950.13;5097855;28;20285;-70
2022/04/11 06:55:28;;;;;;;4.35;4.00;;;;;;;6.11;55.34;94950.47;5079865;28;20543;-70
2022/04/11 06:57:55;;;;;;;4.97;4.38;;;;;;;6.20;54.88;94945.75;5080087;28;20258;-70
2022/04/11 07:00:23;;;;;;;4.97;4.43;;;;;;;6.24;55.28;94950.25;5097451;28;20200;-70
2022/04/11 07:02:50;;;;;;;5.10;4.60;;;;;;;6.35;55.26;94958.09;5076312;28;20332;-70
2022/04/11 07:05:19;;;;;;;4.82;4.43;;;;;;;6.39;54.55;94964.53;5076511;28;20216;-69
2022/04/11 07:07:46;;;;;;;5.15;4.60;;;;;;;6.36;54.18;94960.53;5076845;28;20204;-70
2022/04/11 07:10:15;;;;;;;4.78;4.38;;;;;;;6.37;54.09;94962.13;5076447;28;20205;-70
2022/04/11 07:12:42;;;;;;;4.70;4.30;;;;;;;6.41;53.67;94963.09;5075586;28;20217;-70
2022/04/11 07:15:10;;;;;;;5.18;4.70;;;;;;;6.49;54.59;94962.22;5075885;28;20204;-70
2022/04/11 07:17:38;;;;;;;5.57;5.07;;;;;;;6.60;54.52;94973.63;5076471;28;20197;-70
2022/04/11 07:20:06;;;;;;;4.68;4.38;;;;;;;6.68;53.49;94961.84;5076437;28;20201;-70
2022/04/11 07:22:36;;;;;;;6.20;4.40;;;;;;;6.70;54.13;94973.25;5059386;28;20255;-70
2022/04/11 07:25:03;;;;;;;4.70;4.20;;;;;;;6.75;53.64;94966.78;5077387;28;20199;-70
2022/04/11 07:27:31;;;;;;;4.75;4.35;;;;;;;6.80;53.36;94969.34;5076035;28;20193;-70
2022/04/11 07:29:58;;;;;;;4.78;4.40;;;;;;;6.84;53.05;94973.03;5075952;28;20201;-70
2022/04/11 07:32:25;;;;;;;4.80;4.40;;;;;;;6.87;52.40;94983.34;5075883;28;20231;-70
2022/04/11 07:34:52;;;;;;;4.50;4.10;;;;;;;6.90;52.72;94987.34;5076405;28;20188;-70
2022/04/11 07:37:20;;;;;;;5.15;4.38;;;;;;;6.90;52.80;94979.09;5076064;28;20209;-70
2022/04/11 07:39:48;;;;;;;5.00;4.60;;;;;;;6.98;52.33;94986.50;5076280;28;20626;-70
2022/04/11 07:42:15;;;;;;;4.78;4.10;;;;;;;7.05;52.12;94991.47;5075380;28;20224;-70
2022/04/11 07:44:42;;;;;;;4.97;4.15;;;;;;;7.10;52.46;94992.06;5075101;28;20197;-70
2022/04/11 07:47:10;;;;;;;4.22;3.88;;;;;;;7.17;51.49;94991.53;5076747;28;20203;-70
2022/04/11 07:49:37;;;;;;;4.10;3.63;;;;;;;7.26;51.06;94997.75;5075632;28;20195;-70
2022/04/11 07:52:04;;;;;;;4.28;3.97;;;;;;;7.41;51.57;95005.41;5076322;28;20185;-70
2022/04/11 07:54:31;;;;;;;6.30;4.20;;;;;;;7.45;51.13;95000.06;5075989;28;20250;-70
2022/04/11 07:57:00;;;;;;;4.70;4.25;;;;;;;7.49;51.02;95003.75;5076322;28;20280;-70
2022/04/11 07:59:29;;;;;;;4.60;4.20;;;;;;;7.49;51.33;95001.00;5076191;28;20245;-70
2022/04/11 08:01:56;;;;;;;5.03;4.45;;;;;;;7.41;50.70;95012.84;5071417;28;20585;-70
2022/04/11 08:04:23;;;;;;;4.30;4.00;;;;;;;7.19;51.90;95014.75;5055890;28;20240;-70
2022/04/11 08:06:53;;;;;;;4.47;3.90;;;;;;;7.05;50.79;95005.97;5055186;28;20225;-70
2022/04/11 08:09:20;;;;;;;4.25;3.92;;;;;;;7.19;52.35;95008.47;5055375;28;20201;-70
2022/04/11 08:11:47;;;;;;;4.18;3.55;;;;;;;7.28;52.06;95014.69;5055734;28;20182;-70
2022/04/11 08:14:17;;;;;;;4.20;3.80;;;;;;;7.48;51.64;95013.91;5055826;28;20517;-70
2022/04/11 08:16:45;;;;;;;4.78;4.38;;;;;;;7.63;51.23;95020.75;5055910;28;20186;-70
2022/04/11 08:19:12;;;;;;;4.40;4.10;;;;;;;7.81;51.88;95021.41;5054961;28;20205;-70
2022/04/11 08:21:40;;;;;;;4.47;4.13;;;;;;;7.90;51.48;95015.81;5055988;28;20201;-70
2022/04/11 08:24:08;;;;;;;4.15;3.85;;;;;;;7.81;49.80;95024.16;5055549;28;20193;-70
2022/04/11 08:26:35;;;;;;;4.30;3.95;;;;;;;7.68;48.73;95015.03;5056266;28;20182;-70
2022/04/11 08:29:01;;;;;;;4.15;3.85;;;;;;;7.62;51.10;95021.06;5056276;28;20190;-71
2022/04/11 08:31:32;;;;;;;4.03;3.63;;;;;;;7.49;50.21;95017.47;5056430;28;20192;-70
2022/04/11 08:34:01;;;;;;;4.43;3.97;;;;;;;7.75;48.48;95019.19;5055356;28;20225;-70
2022/04/11 08:36:28;;;;;;;4.43;4.03;;;;;;;7.91;51.02;95022.91;5056119;28;20194;-70
2022/04/11 08:38:56;;;;;;;4.45;4.05;;;;;;;7.97;52.00;95029.81;5056303;28;20190;-70
2022/04/11 08:41:23;;;;;;;4.35;4.05;;;;;;;8.24;52.85;95044.91;5055791;28;20201;-70
2022/04/11 08:43:52;;;;;;;4.63;4.22;;;;;;;8.49;48.98;95034.81;5055458;28;20291;-70
2022/04/11 08:46:21;;;;;;;4.07;3.70;;;;;;;8.64;46.86;95027.84;5055699;28;20515;-70
2022/04/11 08:48:51;;;;;;;3.88;3.53;;;;;;;8.64;48.54;95033.34;5055183;28;20197;-70
2022/04/11 08:51:19;;;;;;;4.50;4.10;;;;;;;8.69;47.44;95033.13;5055697;28;20189;-70
2022/04/11 08:53:48;;;;;;;4.10;3.60;;;;;;;8.68;46.98;95037.84;5056270;28;20292;-70
2022/04/11 08:56:16;;;;;;;4.50;3.90;;;;;;;8.39;48.64;95032.53;5055200;28;20196;-70
2022/04/11 08:58:43;;;;;;;3.67;3.30;;;;;;;8.43;46.47;95038.94;5055816;28;20186;-70
2022/04/11 09:01:11;;;;;;;4.22;3.85;;;;;;;8.53;46.73;95032.97;5057786;28;20236;-70
2022/04/11 09:03:39;;;;;;;5.28;4.40;;;;;;;8.53;47.18;95041.22;5078862;28;20196;-70
2022/04/11 09:06:13;;;;;;;4.38;4.07;;;;;;;8.76;48.33;95040.84;5095912;28;20194;-70
2022/04/11 09:08:43;;;;;;;3.90;3.58;;;;;;;8.89;46.83;95031.44;5096208;28;20207;-70
2022/04/11 09:11:10;;;;;;;4.78;4.20;;;;;;;9.17;46.62;95042.56;5095828;28;20214;-70
2022/04/11 09:13:52;;;;;;;3.97;3.60;;;;;;;9.32;45.94;95044.59;5078573;28;20242;-70
2022/04/11 09:16:20;;;;;;;4.53;3.80;;;;;;;9.17;45.84;95048.06;5078168;28;20246;-70
2022/04/11 09:18:48;;;;;;;4.65;4.25;;;;;;;9.08;45.39;95055.66;5095673;28;20207;-70
2022/04/11 09:21:17;;;;;;;4.30;4.00;;;;;;;9.06;45.63;95049.66;5095923;28;20185;-70
2022/04/11 09:23:44;;;;;;;4.00;3.63;;;;;;;9.13;46.56;95052.66;5078209;28;20615;-70
2022/04/11 09:26:22;;;;;;;4.00;3.70;;;;;;;9.08;44.84;95039.13;5095786;28;20181;-70
2022/04/11 09:29:02;;;;;;;3.90;3.60;;;;;;;9.26;46.34;95045.19;5077779;28;20533;-70
2022/04/11 09:31:30;;;;;;;5.15;3.70;;;;;;;9.36;44.83;95050.22;5095239;28;20241;-70
2022/04/11 09:33:57;;;;;;;3.50;3.30;;;;;;;9.26;44.41;95045.19;5095622;28;20655;-70
2022/04/11 09:36:25;;;;;;;3.55;3.33;;;;;;;9.12;45.93;95040.84;5099048;28;20302;-70
2022/04/11 09:38:59;;;;;;;3.80;3.50;;;;;;;9.31;43.59;95034.75;5099556;28;20173;-70
2022/04/11 09:41:30;;;;;;;3.90;3.50;;;;;;;9.56;46.97;95020.97;5099811;28;20199;-70
2022/04/11 09:43:57;;;;;;;3.63;3.33;;;;;;;9.91;44.20;95034.16;5081361;28;20201;-70
2022/04/11 09:46:24;;;;;;;3.30;3.10;;;;;;;10.16;44.13;95035.69;5099339;28;20188;-70
2022/04/11 09:48:55;;;;;;;4.13;3.50;;;;;;;10.17;43.14;95028.22;5099392;28;20517;-71
2022/04/11 09:51:22;;;;;;;3.42;3.03;;;;;;;9.94;42.87;95020.50;5099568;28;20195;-71
2022/04/11 09:53:51;;;;;;;4.85;3.38;;;;;;;10.19;43.58;95031.44;5099067;28;20208;-70
2022/04/11 09:56:19;;;;;;;3.88;3.58;;;;;;;10.43;42.08;95033.31;5081644;28;20207;-70
2022/04/11 09:58:48;;;;;;;4.00;3.63;;;;;;;10.49;43.72;95029.13;5081427;28;20193;-70
2022/04/11 10:01:16;;;;;;;3.67;3.38;;;;;;;10.51;42.08;95024.84;5081280;28;20206;-70
2022/04/11 10:03:44;;;;;;;3.63;3.33;;;;;;;10.34;44.52;95027.94;5081435;28;20211;-70
2022/04/11 10:06:13;;;;;;;3.97;3.67;;;;;;;10.51;42.20;95022.09;5099111;28;20219;-70
2022/04/11 10:08:43;;;;;;;4.05;3.75;;;;;;;10.68;43.54;95017.41;5081120;28;20204;-70
2022/04/11 10:11:12;;;;;;;4.20;3.90;;;;;;;10.83;41.48;95016.63;5098583;28;20214;-70
2022/04/11 10:13:39;;;;;;;4.10;3.70;;;;;;;11.01;41.42;95022.59;5080939;28;20216;-70
2022/04/11 10:16:07;;;;;;;3.70;3.40;;;;;;;10.95;41.07;95018.47;5081138;28;20196;-70
2022/04/11 10:18:35;;;;;;;3.78;3.47;;;;;;;10.86;40.18;95021.44;5098866;28;20204;-70
2022/04/11 10:21:05;;;;;;;4.88;3.72;;;;;;;10.80;40.86;95025.59;5098557;28;20196;-70
2022/04/11 10:23:34;;;;;;;3.75;3.40;;;;;;;10.75;42.81;95032.19;5099078;28;20219;-70
2022/04/11 10:26:05;;;;;;;3.95;3.65;;;;;;;10.48;41.93;95017.28;5081266;28;20196;-70
2022/04/11 10:28:44;;;;;;;3.67;3.35;;;;;;;10.21;42.90;95026.38;5080974;28;20224;-70
2022/04/11 10:31:12;;;;;;;3.65;3.20;;;;;;;10.50;42.21;95022.47;5098599;28;20192;-70
2022/04/11 10:33:48;;;;;;;3.95;3.55;;;;;;;10.85;40.77;95019.81;5080710;28;20220;-70
2022/04/11 10:36:29;;;;;;;3.70;3.40;;;;;;;11.00;39.51;95021.78;5080951;28;20196;-70
2022/04/11 10:39:26;;;;;;;3.20;2.90;;;;;;;11.17;41.12;95017.84;5080671;28;20206;-70
2022/04/11 10:42:26;;;;;;;3.47;2.90;;;;;;;11.28;38.88;95029.13;5098100;28;20193;-69
2022/04/11 10:44:56;;;;;;;3.50;3.20;;;;;;;11.10;39.65;95023.19;4980467;28;20292;-70
2022/04/11 10:47:42;;;;;;;5.57;3.30;;;;;;;10.97;38.83;95016.97;5078005;28;20211;-70
2022/04/11 10:50:26;;;;;;;3.60;3.30;;;;;;;10.89;40.07;95030.94;5098559;28;20302;-70
2022/04/11 10:53:13;;;;;;;3.70;3.40;;;;;;;10.91;39.08;95020.34;5098343;28;20223;-70
2022/04/11 10:56:03;;;;;;;4.20;3.90;;;;;;;10.76;38.50;95025.50;5097852;28;20627;-70
2022/04/11 10:58:41;;;;;;;3.47;3.28;;;;;;;10.82;40.27;95034.31;5097707;28;20689;-70
2022/04/11 11:01:10;;;;;;;3.50;3.30;;;;;;;10.84;39.25;95029.25;5079927;28;20203;-70
2022/04/11 11:03:40;;;;;;;3.83;3.53;;;;;;;10.86;39.47;95021.44;5098115;28;20185;-70
2022/04/11 11:06:17;;;;;;;3.45;3.15;;;;;;;11.03;39.10;95021.06;5097993;28;20181;-70
2022/04/11 11:08:45;;;;;;;3.53;3.22;;;;;;;11.21;37.79;95017.94;5080037;28;20202;-70
2022/04/11 11:11:26;;;;;;;3.97;3.10;;;;;;;11.46;38.33;95030.34;5097962;28;20308;-70
2022/04/11 11:13:55;;;;;;;3.55;3.25;;;;;;;11.55;37.67;95041.22;5080034;28;20295;-69
2022/04/11 11:16:39;;;;;;;3.97;3.55;;;;;;;11.34;37.64;95033.25;5098101;28;20191;-70
2022/04/11 11:19:18;;;;;;;3.65;3.35;;;;;;;11.30;37.06;95035.91;5098038;28;20299;-70
2022/04/11 11:22:08;;;;;;;3.67;3.40;;;;;;;11.58;37.14;95032.19;5097823;28;20184;-69
2022/04/11 11:24:35;;;;;;;3.78;3.40;;;;;;;11.82;36.71;95025.63;5060325;28;20228;-70
2022/04/11 11:27:06;;;;;;;3.25;3.00;;;;;;;11.85;36.66;95018.63;5079947;28;20254;-70
2022/04/11 11:29:44;;;;;;;3.83;3.10;;;;;;;11.73;36.19;95031.38;5098029;28;20230;-70
2022/04/11 11:32:14;;;;;;;3.17;2.97;;;;;;;11.59;36.33;95035.78;5079617;28;20202;-70
2022/04/11 11:34:42;;;;;;;3.47;3.17;;;;;;;11.50;35.86;95033.19;5079558;28;20248;-70
2022/04/11 11:37:11;;;;;;;4.00;2.90;;;;;;;11.45;35.65;95037.06;5097374;28;20232;-70
2022/04/11 11:39:40;;;;;;;3.15;2.95;;;;;;;11.34;35.04;95027.72;5097243;28;20185;-70
2022/04/11 11:42:09;;;;;;;3.00;2.75;;;;;;;11.25;35.85;95033.41;5097285;28;20189;-70
2022/04/11 11:44:43;;;;;;;3.15;2.92;;;;;;;11.44;36.51;95038.22;5096973;28;20192;-69
2022/04/11 11:47:12;;;;;;;3.90;2.80;;;;;;;11.84;36.34;95022.53;5096552;28;20584;-70
2022/04/11 11:49:41;;;;;;;3.22;3.00;;;;;;;12.12;33.74;95022.34;5096656;28;20184;-70